Time;durP1;ratioP1;P1;durP2;ratioP2;P2;SDS_P1;SDS_P2;PMS_P1;PMS_P2;Temp;Humidity;BMP_temperature;BMP_pressure;BME280_temperature;BME280_humidity;BME280_pressure;Samples;Min_cycle;Max_cycle;Signal;HPM_P1;HPM_P2
2022/09/08 00:00:39;;;;;;;3.23;1.70;;;18.90;99.90;;;;;;5032917;28;21025;-75
2022/09/08 00:03:08;;;;;;;2.63;1.90;;;18.90;99.90;;;;;;5032791;28;20195;-74
2022/09/08 00:05:41;;;;;;;3.33;1.60;;;18.90;99.90;;;;;;5032570;28;20529;-74
2022/09/08 00:08:09;;;;;;;2.93;1.90;;;18.90;99.90;;;;;;5032843;28;20406;-74
2022/09/08 00:10:37;;;;;;;4.33;1.97;;;18.90;99.90;;;;;;5032876;28;20506;-75
2022/09/08 00:13:03;;;;;;;12.27;2.00;;;18.90;99.90;;;;;;5032913;28;20485;-74
2022/09/08 00:15:29;;;;;;;4.67;2.37;;;18.80;99.90;;;;;;5032374;28;20906;-74
2022/09/08 00:17:54;;;;;;;1.80;1.60;;;18.80;99.90;;;;;;5032658;28;20179;-74
2022/09/08 00:20:20;;;;;;;1.70;1.37;;;18.80;99.90;;;;;;5032627;28;20410;-74
2022/09/08 00:22:46;;;;;;;9.30;2.00;;;18.80;99.90;;;;;;5032481;28;20233;-74
2022/09/08 00:25:11;;;;;;;2.27;1.90;;;18.80;99.90;;;;;;5032232;28;20191;-74
2022/09/08 00:27:37;;;;;;;2.40;2.10;;;18.80;99.90;;;;;;5032672;28;20552;-74
2022/09/08 00:30:03;;;;;;;4.80;2.97;;;18.70;99.90;;;;;;5032591;28;20254;-74
2022/09/08 00:32:29;;;;;;;5.93;1.80;;;18.70;99.90;;;;;;5032584;28;20652;-74
2022/09/08 00:35:00;;;;;;;7.23;2.10;;;18.70;99.90;;;;;;5031952;28;20509;-73
2022/09/08 00:37:26;;;;;;;2.00;1.57;;;18.70;99.90;;;;;;5032319;28;20414;-73
2022/09/08 00:39:52;;;;;;;3.37;1.97;;;18.70;99.90;;;;;;5032229;28;20398;-73
2022/09/08 00:42:17;;;;;;;2.67;2.07;;;18.70;99.90;;;;;;5031813;28;20815;-73
2022/09/08 00:44:48;;;;;;;2.57;2.30;;;18.70;99.90;;;;;;5031851;28;20586;-73
2022/09/08 00:47:22;;;;;;;8.43;2.40;;;18.80;99.90;;;;;;5032222;28;20591;-73
2022/09/08 00:49:54;;;;;;;2.50;2.03;;;18.80;99.90;;;;;;5032248;28;20399;-73
2022/09/08 00:52:20;;;;;;;2.53;2.13;;;18.80;99.90;;;;;;5032203;28;20730;-75
2022/09/08 00:54:47;;;;;;;2.27;2.00;;;18.80;99.90;;;;;;5031848;28;20429;-73
2022/09/08 00:57:12;;;;;;;4.43;1.97;;;18.80;99.90;;;;;;5032211;28;20402;-73
2022/09/08 00:59:38;;;;;;;2.53;2.33;;;18.90;99.90;;;;;;5032043;28;20411;-74
2022/09/08 01:02:25;;;;;;;6.37;2.13;;;18.90;99.90;;;;;;5031895;28;20282;-74
2022/09/08 01:04:55;;;;;;;5.07;1.80;;;18.90;99.90;;;;;;5030278;28;20278;-74
2022/09/08 01:13:26;;;;;;;2.83;1.83;;;18.80;99.90;;;;;;5031685;28;20460;-74
2022/09/08 01:15:52;;;;;;;3.40;1.83;;;18.80;99.90;;;;;;5030310;28;20421;-74
2022/09/08 01:18:17;;;;;;;3.33;2.20;;;18.80;99.90;;;;;;5030506;28;20497;-74
2022/09/08 01:20:50;;;;;;;2.60;2.03;;;18.80;99.90;;;;;;5031827;28;20847;-74
2022/09/08 01:23:35;;;;;;;3.50;1.97;;;18.80;99.90;;;;;;5031826;28;20222;-74
2022/09/08 01:26:22;;;;;;;6.40;1.90;;;18.90;99.90;;;;;;5031869;28;20884;-74
2022/09/08 01:29:02;;;;;;;7.03;3.50;;;18.90;99.90;;;;;;5031717;28;20402;-74
2022/09/08 01:31:31;;;;;;;2.43;2.23;;;19.00;99.90;;;;;;5031814;28;20398;-74
2022/09/08 01:33:59;;;;;;;2.33;2.10;;;19.00;99.90;;;;;;5031555;28;20425;-74
2022/09/08 01:36:25;;;;;;;2.70;2.00;;;19.00;99.90;;;;;;5031588;28;20427;-74
2022/09/08 01:38:50;;;;;;;2.37;2.17;;;19.00;99.90;;;;;;5031744;28;20444;-74
2022/09/08 01:41:16;;;;;;;2.63;2.00;;;19.00;99.90;;;;;;5031627;28;20402;-74
2022/09/08 01:43:42;;;;;;;2.30;1.80;;;19.00;99.90;;;;;;5031671;28;20295;-73
2022/09/08 01:46:08;;;;;;;2.10;1.67;;;19.00;99.90;;;;;;5031414;28;20164;-74
2022/09/08 01:48:34;;;;;;;6.00;2.13;;;19.00;99.90;;;;;;5031592;28;20258;-74
2022/09/08 01:51:01;;;;;;;2.73;2.27;;;19.10;99.90;;;;;;5031616;28;20418;-74
2022/09/08 01:53:28;;;;;;;3.53;3.10;;;19.10;99.90;;;;;;5031914;28;20414;-74
2022/09/08 01:55:53;;;;;;;3.00;2.70;;;19.00;99.90;;;;;;5033742;28;20446;-74
2022/09/08 01:58:19;;;;;;;4.87;2.70;;;19.00;99.90;;;;;;5035348;28;20449;-74
2022/09/08 02:00:45;;;;;;;2.73;1.80;;;19.00;99.90;;;;;;5035534;28;20554;-73
2022/09/08 02:03:11;;;;;;;3.00;1.60;;;19.00;99.90;;;;;;5035062;28;20198;-74
2022/09/08 02:05:38;;;;;;;3.10;2.67;;;19.00;99.90;;;;;;5034756;28;20194;-74
2022/09/08 02:08:04;;;;;;;4.17;3.10;;;19.00;99.90;;;;;;5035190;28;20485;-74
2022/09/08 02:10:30;;;;;;;2.47;2.23;;;19.00;99.90;;;;;;5034590;28;21062;-73
2022/09/08 02:12:55;;;;;;;5.60;1.90;;;18.90;99.90;;;;;;5034563;28;20258;-73
2022/09/08 02:15:21;;;;;;;2.03;1.77;;;19.00;99.90;;;;;;5033448;28;20285;-74
2022/09/08 02:17:46;;;;;;;2.37;1.67;;;19.00;99.90;;;;;;5034931;28;20168;-75
2022/09/08 02:20:15;;;;;;;2.50;2.30;;;18.90;99.90;;;;;;5034922;28;20237;-74
2022/09/08 02:22:41;;;;;;;4.23;1.70;;;18.90;99.90;;;;;;5034896;28;20195;-74
2022/09/08 02:25:06;;;;;;;2.43;2.20;;;18.80;99.90;;;;;;5034608;28;20434;-75
2022/09/08 02:27:32;;;;;;;2.37;1.83;;;18.80;99.90;;;;;;5034788;28;20445;-74
2022/09/08 02:29:57;;;;;;;4.23;2.70;;;18.70;99.90;;;;;;5034762;28;20164;-74
2022/09/08 02:32:23;;;;;;;2.97;1.80;;;18.70;99.90;;;;;;5034509;28;20241;-73
2022/09/08 02:34:48;;;;;;;2.10;1.80;;;18.70;99.90;;;;;;5034385;28;20542;-74
2022/09/08 02:37:14;;;;;;;1.70;1.60;;;18.70;99.90;;;;;;5034664;28;20595;-73
2022/09/08 02:39:39;;;;;;;2.10;1.70;;;18.70;99.90;;;;;;5034586;28;20171;-73
2022/09/08 02:42:06;;;;;;;2.40;1.70;;;18.60;99.90;;;;;;5034327;28;20191;-73
2022/09/08 02:44:32;;;;;;;5.43;2.60;;;18.60;99.90;;;;;;5033998;28;20183;-73
2022/09/08 02:46:57;;;;;;;2.63;2.00;;;18.50;99.90;;;;;;5034504;28;20402;-74
2022/09/08 02:49:23;;;;;;;2.70;2.13;;;18.50;99.90;;;;;;5034489;28;20467;-74
2022/09/08 02:51:49;;;;;;;3.37;2.37;;;18.50;99.90;;;;;;5034394;28;20184;-74
2022/09/08 02:54:15;;;;;;;2.70;1.80;;;18.50;99.90;;;;;;5032973;28;20219;-74
2022/09/08 02:56:41;;;;;;;6.50;2.63;;;18.40;99.90;;;;;;5034242;28;20494;-74
2022/09/08 02:59:06;;;;;;;2.80;1.93;;;18.40;99.90;;;;;;5034154;28;20214;-74
2022/09/08 03:01:32;;;;;;;1.70;1.40;;;18.40;99.90;;;;;;5033962;28;20672;-75
2022/09/08 03:03:58;;;;;;;2.37;2.17;;;18.40;99.90;;;;;;5032414;28;20215;-74
2022/09/08 03:06:23;;;;;;;2.37;2.00;;;18.40;99.90;;;;;;5032502;28;20258;-74
2022/09/08 03:08:49;;;;;;;5.27;2.00;;;18.50;99.90;;;;;;5033887;28;20836;-73
2022/09/08 03:11:16;;;;;;;2.47;2.00;;;18.40;99.90;;;;;;5033840;28;20629;-74
2022/09/08 03:13:42;;;;;;;3.50;2.50;;;18.40;99.90;;;;;;5033725;28;20818;-73
2022/09/08 03:16:07;;;;;;;2.70;1.97;;;18.50;99.90;;;;;;5033280;28;20402;-73
2022/09/08 03:18:33;;;;;;;4.20;2.43;;;18.50;99.90;;;;;;5033800;28;20195;-74
2022/09/08 03:21:04;;;;;;;3.27;2.53;;;18.50;99.90;;;;;;5033727;28;20213;-74
2022/09/08 03:23:31;;;;;;;2.27;2.07;;;18.50;99.90;;;;;;5033527;28;20462;-74
2022/09/08 03:26:04;;;;;;;2.90;2.30;;;18.50;99.90;;;;;;5033386;28;20417;-74
2022/09/08 03:28:31;;;;;;;4.80;1.93;;;18.40;99.90;;;;;;5033560;28;20395;-74
2022/09/08 03:30:56;;;;;;;3.17;2.20;;;18.40;99.90;;;;;;5033512;28;20402;-73
2022/09/08 03:33:22;;;;;;;4.20;2.13;;;18.40;99.90;;;;;;5033526;28;20437;-75
2022/09/08 03:35:48;;;;;;;2.20;1.90;;;18.40;99.90;;;;;;5031833;28;20194;-72
2022/09/08 03:38:16;;;;;;;5.63;2.37;;;18.30;99.90;;;;;;5033461;28;20167;-72
2022/09/08 03:40:42;;;;;;;2.80;2.33;;;18.30;99.90;;;;;;5033386;28;20601;-73
2022/09/08 03:43:08;;;;;;;3.77;2.13;;;18.40;99.90;;;;;;5033172;28;20486;-72
2022/09/08 03:45:34;;;;;;;4.37;2.37;;;18.30;99.90;;;;;;5032958;28;20464;-72
2022/09/08 03:47:59;;;;;;;2.13;1.87;;;18.30;99.90;;;;;;5033220;28;20172;-72
2022/09/08 03:50:25;;;;;;;2.73;1.80;;;18.40;99.90;;;;;;5033130;28;20246;-72
2022/09/08 03:52:51;;;;;;;4.13;2.30;;;18.40;99.90;;;;;;5033239;28;20171;-72
2022/09/08 03:55:18;;;;;;;6.77;2.73;;;18.40;99.90;;;;;;5032718;28;20195;-72
2022/09/08 03:57:44;;;;;;;2.33;1.70;;;18.40;99.90;;;;;;5033004;28;20217;-73
2022/09/08 04:00:12;;;;;;;8.13;2.50;;;18.40;99.90;;;;;;5032932;28;20814;-71
2022/09/08 04:02:39;;;;;;;2.50;2.30;;;18.40;99.90;;;;;;5033029;28;20191;-71
2022/09/08 04:05:05;;;;;;;3.17;2.20;;;18.40;99.90;;;;;;5032515;28;20457;-73
2022/09/08 04:07:32;;;;;;;3.70;2.20;;;18.40;99.90;;;;;;5032731;28;20895;-72
2022/09/08 04:09:58;;;;;;;5.87;2.83;;;18.40;99.90;;;;;;5032687;28;20414;-72
2022/09/08 04:12:24;;;;;;;2.87;2.40;;;18.30;99.90;;;;;;5032377;28;20948;-72
2022/09/08 04:14:51;;;;;;;3.50;2.80;;;18.30;99.90;;;;;;5032265;28;20226;-72
2022/09/08 04:17:18;;;;;;;4.00;2.87;;;18.30;99.90;;;;;;5032075;28;20398;-72
2022/09/08 04:19:45;;;;;;;3.50;2.27;;;18.40;99.90;;;;;;5032665;28;20422;-72
2022/09/08 04:22:11;;;;;;;3.30;2.60;;;18.30;99.90;;;;;;5032434;28;20515;-72
2022/09/08 04:24:37;;;;;;;5.07;2.60;;;18.30;99.90;;;;;;5032063;28;20426;-72
2022/09/08 04:27:02;;;;;;;5.77;2.70;;;18.30;99.90;;;;;;5032471;28;20716;-72
2022/09/08 04:29:28;;;;;;;4.43;2.70;;;18.30;99.90;;;;;;5032337;28;20575;-72
2022/09/08 04:31:53;;;;;;;5.70;2.67;;;18.20;99.90;;;;;;5032498;28;20172;-72
2022/09/08 04:34:19;;;;;;;4.50;2.40;;;18.20;99.90;;;;;;5030810;28;20634;-73
2022/09/08 04:36:45;;;;;;;4.17;3.27;;;18.30;99.90;;;;;;5032181;28;20168;-72
2022/09/08 04:39:12;;;;;;;6.43;2.77;;;18.30;99.90;;;;;;5030932;28;20182;-72
2022/09/08 04:41:38;;;;;;;4.07;2.77;;;18.20;99.90;;;;;;5031763;28;20947;-73
2022/09/08 04:44:04;;;;;;;6.17;3.27;;;18.30;99.90;;;;;;5031707;28;20517;-75
2022/09/08 04:46:31;;;;;;;4.17;3.73;;;18.40;99.90;;;;;;5031899;28;20398;-73
2022/09/08 04:48:57;;;;;;;6.43;3.23;;;18.40;99.90;;;;;;5032121;28;20464;-73
2022/09/08 04:51:24;;;;;;;5.67;3.20;;;18.30;99.90;;;;;;5031962;28;20900;-73
2022/09/08 04:53:55;;;;;;;3.03;2.43;;;18.30;99.90;;;;;;5030674;28;20438;-74
2022/09/08 04:56:22;;;;;;;6.13;3.57;;;18.30;99.90;;;;;;5030660;28;20540;-73
2022/09/08 04:58:48;;;;;;;3.93;3.17;;;18.30;99.90;;;;;;5031941;28;20406;-73
2022/09/08 05:01:18;;;;;;;5.10;2.90;;;18.30;99.90;;;;;;5032067;28;20414;-73
2022/09/08 05:03:43;;;;;;;3.07;2.77;;;18.20;99.90;;;;;;5031798;28;20490;-73
2022/09/08 05:06:14;;;;;;;6.40;3.90;;;18.20;99.90;;;;;;5031699;28;20540;-72
2022/09/08 05:08:45;;;;;;;10.03;4.30;;;18.20;99.90;;;;;;5031902;28;20168;-73
2022/09/08 05:11:11;;;;;;;5.77;2.90;;;18.10;99.90;;;;;;5032040;28;20453;-73
2022/09/08 05:13:37;;;;;;;4.73;3.17;;;18.10;99.90;;;;;;5031829;28;20497;-73
2022/09/08 05:16:04;;;;;;;4.03;2.57;;;18.10;99.90;;;;;;5030516;28;20537;-73
2022/09/08 05:18:30;;;;;;;3.17;2.47;;;18.10;99.90;;;;;;5031711;28;20171;-73
2022/09/08 05:20:56;;;;;;;4.83;2.83;;;18.10;99.90;;;;;;5031787;28;20463;-74
2022/09/08 05:23:22;;;;;;;3.03;2.40;;;18.00;99.90;;;;;;5031768;28;20657;-73
2022/09/08 05:25:59;;;;;;;4.17;2.57;;;18.00;99.90;;;;;;5031448;28;20431;-73
2022/09/08 05:28:27;;;;;;;3.93;2.60;;;18.00;99.90;;;;;;5035138;28;20167;-73
2022/09/08 05:30:53;;;;;;;3.70;3.10;;;18.00;99.90;;;;;;5034530;28;20516;-73
2022/09/08 05:33:19;;;;;;;4.63;2.27;;;18.00;99.90;;;;;;5035707;28;20410;-73
2022/09/08 05:35:45;;;;;;;4.87;3.20;;;18.10;99.90;;;;;;5034033;28;20449;-73
2022/09/08 05:38:10;;;;;;;3.77;3.40;;;18.10;99.90;;;;;;5035658;28;20417;-73
2022/09/08 05:40:36;;;;;;;2.57;1.87;;;18.00;99.90;;;;;;5035732;28;20183;-73
2022/09/08 05:43:02;;;;;;;3.10;2.27;;;18.00;99.90;;;;;;5034404;28;20203;-73
2022/09/08 05:45:28;;;;;;;4.00;3.13;;;18.00;99.90;;;;;;5035163;28;20184;-73
2022/09/08 05:47:54;;;;;;;2.90;2.60;;;18.00;99.90;;;;;;5034252;28;20425;-72
2022/09/08 05:50:19;;;;;;;8.43;2.93;;;18.00;99.90;;;;;;5035315;28;20668;-73
2022/09/08 05:52:45;;;;;;;3.90;3.17;;;18.00;99.90;;;;;;5035374;28;20176;-73
2022/09/08 05:55:10;;;;;;;3.83;2.90;;;18.00;99.90;;;;;;5035001;28;20737;-73
2022/09/08 05:57:36;;;;;;;3.23;2.93;;;18.00;99.90;;;;;;5035311;28;20258;-73
2022/09/08 06:00:04;;;;;;;3.57;3.20;;;18.00;99.90;;;;;;5035302;28;20545;-73
2022/09/08 06:02:29;;;;;;;4.17;2.57;;;18.00;99.90;;;;;;5035130;28;20188;-73
2022/09/08 06:04:55;;;;;;;5.20;2.70;;;18.00;99.90;;;;;;5034782;28;20426;-73
2022/09/08 06:07:21;;;;;;;3.23;1.97;;;18.00;99.90;;;;;;5035342;28;20167;-73
2022/09/08 06:09:47;;;;;;;3.53;2.90;;;18.00;99.90;;;;;;5035119;28;20171;-73
2022/09/08 06:12:12;;;;;;;3.40;2.13;;;18.00;99.90;;;;;;5035041;28;20571;-73
2022/09/08 06:14:38;;;;;;;4.77;1.93;;;18.00;99.90;;;;;;5034874;28;20203;-73
2022/09/08 06:17:03;;;;;;;3.20;2.07;;;18.00;99.90;;;;;;5034966;28;20225;-73
2022/09/08 06:19:29;;;;;;;3.47;2.13;;;18.10;99.90;;;;;;5034851;28;20175;-73
2022/09/08 06:21:55;;;;;;;4.20;2.40;;;18.10;99.90;;;;;;5034818;28;20694;-73
2022/09/08 06:24:20;;;;;;;8.70;2.17;;;18.10;99.90;;;;;;5034556;28;20215;-73
2022/09/08 06:27:07;;;;;;;2.93;2.03;;;18.10;99.90;;;;;;5034947;28;20172;-74
2022/09/08 06:30:01;;;;;;;2.90;2.17;;;18.20;99.90;;;;;;5033660;28;20187;-74
2022/09/08 06:32:37;;;;;;;3.57;2.10;;;18.10;99.90;;;;;;5034755;28;20410;-73
2022/09/08 06:35:10;;;;;;;2.93;2.00;;;18.20;99.90;;;;;;5034435;28;20517;-73
2022/09/08 06:37:56;;;;;;;3.00;2.07;;;18.10;99.90;;;;;;5034669;28;20507;-74
2022/09/08 06:40:52;;;;;;;2.90;2.37;;;18.10;99.90;;;;;;5033849;28;20797;-73
2022/09/08 06:43:23;;;;;;;5.40;2.10;;;18.10;99.90;;;;;;5034016;28;20993;-73
2022/09/08 06:45:51;;;;;;;5.90;2.23;;;18.20;99.90;;;;;;5032951;28;20438;-73
2022/09/08 06:48:33;;;;;;;5.20;2.57;;;18.20;99.90;;;;;;5034308;28;20406;-73
2022/09/08 06:51:08;;;;;;;4.00;1.83;;;18.30;99.90;;;;;;5034173;28;20465;-73
2022/09/08 06:54:07;;;;;;;5.00;2.47;;;18.40;99.90;;;;;;5034148;28;20493;-73
2022/09/08 06:56:51;;;;;;;5.80;4.07;;;18.50;99.90;;;;;;5033971;28;20414;-73
2022/09/08 06:59:31;;;;;;;3.27;2.97;;;18.50;99.90;;;;;;5032927;28;20528;-73
2022/09/08 07:02:18;;;;;;;4.00;2.43;;;18.60;99.90;;;;;;5034036;28;20485;-73
2022/09/08 07:05:12;;;;;;;4.23;2.50;;;18.60;99.90;;;;;;5033784;28;20428;-73
2022/09/08 07:07:49;;;;;;;3.40;2.70;;;18.60;99.90;;;;;;5033948;28;20403;-74
2022/09/08 07:10:38;;;;;;;2.60;2.40;;;18.60;99.90;;;;;;5033935;28;20406;-74
2022/09/08 07:13:37;;;;;;;9.80;2.70;;;18.50;99.90;;;;;;5034237;28;20922;-73
2022/09/08 07:16:32;;;;;;;3.37;2.10;;;18.50;99.90;;;;;;5033643;28;20804;-74
2022/09/08 07:19:35;;;;;;;4.27;2.10;;;18.50;99.90;;;;;;5025933;28;20434;-73
2022/09/08 07:22:17;;;;;;;1.17;1.03;;;18.40;99.90;;;;;;5033675;28;20863;-74
2022/09/08 07:24:45;;;;;;;3.27;1.83;;;18.30;99.90;;;;;;5033370;28;20422;-73
2022/09/08 07:27:13;;;;;;;5.60;1.63;;;18.30;99.90;;;;;;5033582;28;20803;-73
2022/09/08 07:29:43;;;;;;;2.17;1.37;;;18.20;99.90;;;;;;5033525;28;20402;-74
2022/09/08 07:32:20;;;;;;;1.97;1.10;;;18.20;99.90;;;;;;5032316;28;20433;-74
2022/09/08 07:35:01;;;;;;;1.63;1.30;;;18.20;99.90;;;;;;5031888;28;20480;-74
2022/09/08 07:37:35;;;;;;;1.80;1.20;;;18.30;99.90;;;;;;5033433;28;20513;-74
2022/09/08 07:40:16;;;;;;;2.17;1.30;;;18.40;99.90;;;;;;5033416;28;20418;-74
2022/09/08 07:42:42;;;;;;;1.80;1.10;;;18.50;99.90;;;;;;5033157;28;20457;-74
2022/09/08 07:45:10;;;;;;;1.87;1.07;;;18.60;99.90;;;;;;5032938;28;20422;-74
2022/09/08 07:47:50;;;;;;;4.20;1.27;;;18.80;99.90;;;;;;5033241;28;20486;-72
2022/09/08 07:50:54;;;;;;;2.43;2.03;;;19.00;99.90;;;;;;5033551;28;20422;-72
2022/09/08 07:53:32;;;;;;;1.60;1.30;;;19.20;99.90;;;;;;5033957;28;20406;-72
2022/09/08 07:56:14;;;;;;;1.80;1.27;;;19.40;99.90;;;;;;5031539;28;20421;-71
2022/09/08 07:58:55;;;;;;;1.87;1.13;;;19.60;99.90;;;;;;5034018;28;20489;-72
2022/09/08 08:02:17;;;;;;;1.50;1.40;;;19.80;99.90;;;;;;5033678;28;20421;-71
2022/09/08 08:04:50;;;;;;;2.20;1.50;;;20.00;99.90;;;;;;5011119;28;20447;-71
2022/09/08 08:07:25;;;;;;;2.23;1.77;;;20.20;99.90;;;;;;5011293;28;20746;-71
2022/09/08 08:10:09;;;;;;;4.93;1.50;;;20.60;99.90;;;;;;5027003;28;20484;-72
2022/09/08 08:12:50;;;;;;;5.30;1.40;;;21.00;99.90;;;;;;5033808;28;20398;-72
2022/09/08 08:15:25;;;;;;;1.40;1.27;;;21.10;99.90;;;;;;5033609;28;20420;-72
2022/09/08 08:18:08;;;;;;;2.40;1.07;;;21.00;99.90;;;;;;5033504;28;20398;-72
2022/09/08 08:20:43;;;;;;;1.43;1.13;;;21.10;99.90;;;;;;5033341;28;20398;-72
2022/09/08 08:23:27;;;;;;;1.50;1.10;;;21.20;99.90;;;;;;5033536;28;20449;-72
2022/09/08 08:26:07;;;;;;;2.40;1.60;;;21.50;99.90;;;;;;5033284;28;20433;-72
2022/09/08 08:28:40;;;;;;;2.70;1.73;;;22.00;99.90;;;;;;5033634;28;20452;-72
2022/09/08 08:31:38;;;;;;;2.17;1.37;;;23.20;99.90;;;;;;5033419;28;20854;-73
2022/09/08 08:34:17;;;;;;;1.40;0.90;;;24.40;99.90;;;;;;5033040;28;20509;-72
2022/09/08 08:36:45;;;;;;;1.63;1.07;;;25.70;99.90;;;;;;5033527;28;20410;-72
2022/09/08 08:39:18;;;;;;;1.53;1.33;;;27.10;99.90;;;;;;5032711;28;20406;-72
2022/09/08 08:41:46;;;;;;;1.60;1.00;;;28.70;99.90;;;;;;5031680;28;20513;-72
2022/09/08 08:44:35;;;;;;;1.80;1.17;;;29.80;99.90;;;;;;5032919;28;20464;-72
2022/09/08 08:47:19;;;;;;;1.60;1.00;;;30.00;99.90;;;;;;5032993;28;20402;-72
2022/09/08 08:49:51;;;;;;;1.80;1.40;;;29.30;96.60;;;;;;5032665;28;20398;-72
2022/09/08 08:52:50;;;;;;;1.40;1.20;;;29.10;99.90;;;;;;5032871;28;20402;-72
2022/09/08 08:55:22;;;;;;;2.23;1.60;;;29.10;98.10;;;;;;5025533;28;20860;-72
2022/09/08 08:58:25;;;;;;;1.77;0.80;;;29.50;96.10;;;;;;5032518;28;20407;-71
2022/09/08 09:01:13;;;;;;;1.27;0.90;;;29.50;95.50;;;;;;5032350;28;20409;-72
2022/09/08 09:04:00;;;;;;;1.70;1.27;;;30.00;93.60;;;;;;5033180;28;20935;-72
2022/09/08 09:06:26;;;;;;;1.20;1.00;;;31.20;88.50;;;;;;5033381;28;20401;-72
2022/09/08 09:09:10;;;;;;;2.07;1.30;;;32.00;75.00;;;;;;5032929;28;20896;-72
2022/09/08 09:12:02;;;;;;;3.53;1.07;;;31.60;73.60;;;;;;5032938;28;20171;-72
2022/09/08 09:14:42;;;;;;;1.30;1.00;;;30.70;76.40;;;;;;5032906;28;20425;-71
2022/09/08 09:17:16;;;;;;;1.37;1.10;;;29.60;73.80;;;;;;5032647;28;20887;-71
2022/09/08 09:20:09;;;;;;;1.47;1.07;;;28.10;82.20;;;;;;5032760;28;20394;-71
2022/09/08 09:23:10;;;;;;;5.10;1.57;;;26.90;95.70;;;;;;5032795;28;20965;-71
2022/09/08 09:25:50;;;;;;;2.23;2.03;;;25.80;99.90;;;;;;5025538;28;20434;-71
2022/09/08 09:28:31;;;;;;;1.97;1.10;;;25.00;99.90;;;;;;5031681;28;20410;-71
2022/09/08 09:31:15;;;;;;;4.83;1.00;;;24.80;99.90;;;;;;5032781;28;20810;-71
2022/09/08 09:34:15;;;;;;;1.20;0.90;;;24.80;99.90;;;;;;5032458;28;20767;-71
2022/09/08 09:36:53;;;;;;;3.70;1.10;;;25.00;99.90;;;;;;5032799;28;20406;-71
2022/09/08 09:39:45;;;;;;;1.53;0.97;;;25.50;99.90;;;;;;5032554;28;20405;-71
2022/09/08 09:42:48;;;;;;;2.90;1.10;;;26.70;99.90;;;;;;5032946;28;20943;-71
2022/09/08 09:45:28;;;;;;;1.40;0.90;;;27.60;99.90;;;;;;5032223;28;20934;-71
2022/09/08 09:48:06;;;;;;;1.30;0.90;;;27.60;99.90;;;;;;5031125;28;20409;-71
2022/09/08 09:50:31;;;;;;;2.23;1.20;;;26.90;99.90;;;;;;5033002;28;20414;-71
2022/09/08 09:53:06;;;;;;;2.13;0.97;;;26.70;99.90;;;;;;5032789;28;20409;-72
2022/09/08 09:55:52;;;;;;;1.20;1.00;;;26.50;99.90;;;;;;5032479;28;20269;-71
2022/09/08 09:58:24;;;;;;;1.53;1.03;;;26.00;99.90;;;;;;5032935;28;20410;-71
2022/09/08 10:01:02;;;;;;;1.43;1.13;;;25.80;99.90;;;;;;5032835;28;20402;-71
2022/09/08 10:03:38;;;;;;;1.67;0.90;;;25.80;99.90;;;;;;5032679;28;20454;-71
2022/09/08 10:06:43;;;;;;;1.80;1.20;;;26.20;99.90;;;;;;5032777;28;20398;-71
2022/09/08 10:09:34;;;;;;;1.50;1.17;;;26.50;99.90;;;;;;5030884;28;20406;-70
2022/09/08 10:12:18;;;;;;;1.40;0.90;;;27.00;99.90;;;;;;5031256;28;20417;-71
2022/09/08 10:15:20;;;;;;;1.67;1.20;;;27.40;99.90;;;;;;5034432;28;20880;-71
2022/09/08 10:18:04;;;;;;;1.60;1.23;;;28.50;98.20;;;;;;5036669;28;20451;-71
2022/09/08 10:20:52;;;;;;;1.20;0.90;;;30.10;94.30;;;;;;5035340;28;20414;-71
2022/09/08 10:23:29;;;;;;;1.30;1.00;;;32.40;77.00;;;;;;5036524;28;20499;-71
2022/09/08 10:26:14;;;;;;;1.80;0.90;;;32.90;68.10;;;;;;5035923;28;20552;-71
2022/09/08 10:28:45;;;;;;;2.40;1.30;;;33.90;62.40;;;;;;5036654;28;20402;-71
2022/09/08 10:31:13;;;;;;;1.30;1.00;;;35.40;60.40;;;;;;5036594;28;20390;-71
2022/09/08 10:34:12;;;;;;;1.90;1.20;;;37.20;55.00;;;;;;5036081;28;20402;-71
2022/09/08 10:36:46;;;;;;;5.40;1.20;;;38.30;48.50;;;;;;5036132;28;20402;-71
2022/09/08 10:39:30;;;;;;;1.47;1.10;;;39.50;46.50;;;;;;5036407;28;20399;-72
2022/09/08 10:42:33;;;;;;;1.40;1.10;;;39.90;43.20;;;;;;5035919;28;20409;-71
2022/09/08 10:45:21;;;;;;;2.33;1.40;;;39.70;43.30;;;;;;5034562;28;20425;-71
2022/09/08 10:48:17;;;;;;;1.57;1.30;;;39.20;42.30;;;;;;5034718;28;20783;-71
2022/09/08 10:50:51;;;;;;;1.20;1.10;;;37.90;42.70;;;;;;5033961;28;20810;-71
2022/09/08 10:53:35;;;;;;;2.07;1.27;;;37.60;44.30;;;;;;5035486;28;20931;-72
2022/09/08 10:56:11;;;;;;;2.43;1.10;;;38.10;45.60;;;;;;5034377;28;20418;-72
2022/09/08 10:59:08;;;;;;;1.80;1.20;;;39.20;43.10;;;;;;5035874;28;20489;-71
2022/09/08 11:02:12;;;;;;;1.40;1.00;;;39.70;41.30;;;;;;5031281;28;20422;-71
2022/09/08 11:05:06;;;;;;;1.67;1.20;;;39.50;43.20;;;;;;5035506;28;20430;-72
2022/09/08 11:08:04;;;;;;;2.90;1.33;;;41.00;42.20;;;;;;5035987;28;20923;-71
2022/09/08 11:10:51;;;;;;;2.13;1.20;;;41.30;40.00;;;;;;5035911;28;20456;-72
2022/09/08 11:13:37;;;;;;;1.40;1.30;;;41.80;40.20;;;;;;5036032;28;20747;-72
2022/09/08 11:16:21;;;;;;;1.30;1.10;;;41.00;38.50;;;;;;5035619;28;20398;-71
2022/09/08 11:19:15;;;;;;;1.93;1.30;;;38.30;39.50;;;;;;5035207;28;20406;-71
2022/09/08 11:22:05;;;;;;;1.20;0.80;;;35.20;42.70;;;;;;5034759;28;20443;-71
2022/09/08 11:24:49;;;;;;;1.90;1.13;;;33.30;46.10;;;;;;5033054;28;20472;-71
2022/09/08 11:27:26;;;;;;;1.67;1.20;;;31.30;48.60;;;;;;5033667;28;20394;-71
2022/09/08 11:30:20;;;;;;;1.10;0.80;;;29.80;50.30;;;;;;5033620;28;20451;-71
2022/09/08 11:32:51;;;;;;;1.10;0.80;;;28.50;52.20;;;;;;5033698;28;20405;-71
2022/09/08 11:35:19;;;;;;;1.20;0.70;;;27.40;54.50;;;;;;5033236;28;20418;-70
2022/09/08 11:38:14;;;;;;;1.77;0.93;;;26.70;56.40;;;;;;5035027;28;20421;-70
2022/09/08 11:41:14;;;;;;;3.87;0.90;;;26.10;59.20;;;;;;5037295;28;20406;-70
2022/09/08 11:44:11;;;;;;;1.47;1.20;;;26.10;63.20;;;;;;5035052;28;21001;-72
2022/09/08 11:46:55;;;;;;;1.40;0.90;;;27.90;59.70;;;;;;5035386;28;20426;-72
2022/09/08 11:49:52;;;;;;;1.40;0.80;;;30.20;57.70;;;;;;5036497;28;20394;-72
2022/09/08 11:52:36;;;;;;;1.17;0.93;;;32.70;53.10;;;;;;5036402;28;20402;-72
2022/09/08 11:55:16;;;;;;;1.47;1.17;;;34.50;49.00;;;;;;5035365;28;20805;-72
2022/09/08 11:58:06;;;;;;;1.30;1.17;;;34.70;46.20;;;;;;5035954;28;20395;-71
2022/09/08 12:00:44;;;;;;;1.20;0.87;;;33.90;45.70;;;;;;5035894;28;20403;-72
2022/09/08 12:03:24;;;;;;;1.10;0.83;;;31.70;47.80;;;;;;5035682;28;20458;-71
2022/09/08 12:06:04;;;;;;;1.13;0.90;;;31.50;49.50;;;;;;5034669;28;20426;-72
2022/09/08 12:08:51;;;;;;;1.00;0.70;;;32.70;49.70;;;;;;5036523;28;20438;-71
2022/09/08 12:11:19;;;;;;;1.30;0.90;;;34.20;47.40;;;;;;5036653;28;20398;-71
2022/09/08 12:14:13;;;;;;;1.30;0.93;;;35.10;43.50;;;;;;5035793;28;20410;-71
2022/09/08 12:17:10;;;;;;;1.10;0.80;;;33.90;42.80;;;;;;5033164;28;20911;-71
2022/09/08 12:19:48;;;;;;;3.60;1.03;;;32.60;45.20;;;;;;5032553;28;20474;-72
2022/09/08 12:22:28;;;;;;;1.00;0.73;;;33.00;44.60;;;;;;5033394;28;20939;-71
2022/09/08 12:25:21;;;;;;;1.37;0.77;;;33.30;44.70;;;;;;5032133;28;20434;-71
2022/09/08 12:28:13;;;;;;;1.10;0.80;;;33.70;42.70;;;;;;5034877;28;20402;-72
2022/09/08 12:30:48;;;;;;;1.20;1.00;;;34.00;41.80;;;;;;5034832;28;20775;-71
2022/09/08 12:33:40;;;;;;;1.40;0.83;;;34.00;42.30;;;;;;5034688;28;20794;-72
2022/09/08 12:36:19;;;;;;;1.30;0.90;;;34.10;41.30;;;;;;5034484;28;20415;-72
2022/09/08 12:38:53;;;;;;;1.60;0.90;;;33.90;41.50;;;;;;5035078;28;20422;-73
2022/09/08 12:41:37;;;;;;;1.97;0.97;;;33.60;42.30;;;;;;5032682;28;20417;-71
2022/09/08 12:44:21;;;;;;;1.43;0.90;;;34.10;42.30;;;;;;5035006;28;20524;-72
2022/09/08 12:47:18;;;;;;;1.43;0.80;;;34.90;42.20;;;;;;5035590;28;20892;-73
2022/09/08 12:50:19;;;;;;;2.97;1.00;;;35.10;41.30;;;;;;5034693;28;20841;-72
2022/09/08 12:53:06;;;;;;;2.73;1.10;;;35.50;41.90;;;;;;5034838;28;20741;-72
2022/09/08 12:55:52;;;;;;;1.60;1.10;;;36.30;39.60;;;;;;5034685;28;20911;-73
2022/09/08 12:58:23;;;;;;;1.60;1.07;;;35.40;40.20;;;;;;5035277;28;20403;-72
2022/09/08 13:01:18;;;;;;;1.83;1.00;;;35.50;42.00;;;;;;5034861;28;20423;-73
2022/09/08 13:03:43;;;;;;;1.43;0.80;;;36.30;39.30;;;;;;5036935;28;20457;-72
2022/09/08 13:06:20;;;;;;;1.10;0.93;;;36.80;38.70;;;;;;5035288;28;20945;-72
2022/09/08 13:08:58;;;;;;;2.00;0.93;;;36.50;39.90;;;;;;5036473;28;20460;-73
2022/09/08 13:11:39;;;;;;;1.20;0.90;;;37.10;39.40;;;;;;5036921;28;20402;-73
2022/09/08 13:14:09;;;;;;;1.40;0.87;;;38.20;38.40;;;;;;5035949;28;20565;-73
2022/09/08 13:16:56;;;;;;;1.20;1.00;;;39.20;38.90;;;;;;5034487;28;20380;-73
2022/09/08 13:19:27;;;;;;;5.10;1.40;;;40.40;37.40;;;;;;5034301;28;20402;-73
2022/09/08 13:22:23;;;;;;;1.20;1.00;;;41.10;35.50;;;;;;5034263;28;20468;-73
2022/09/08 13:25:06;;;;;;;2.90;1.60;;;41.20;35.10;;;;;;5035757;28;20443;-72
2022/09/08 13:27:58;;;;;;;2.13;1.33;;;40.70;34.70;;;;;;5034965;28;20810;-73
2022/09/08 13:30:29;;;;;;;1.27;0.90;;;40.70;35.70;;;;;;5035242;28;20395;-72
2022/09/08 13:33:27;;;;;;;1.20;1.00;;;39.40;34.50;;;;;;5034787;28;20389;-73
2022/09/08 13:36:17;;;;;;;2.20;1.27;;;38.80;35.90;;;;;;5033795;28;20534;-73